Time;durP1;ratioP1;P1;durP2;ratioP2;P2;SDS_P1;SDS_P2;PMS_P1;PMS_P2;Temp;Humidity;BMP_temperature;BMP_pressure;BME280_temperature;BME280_humidity;BME280_pressure;Samples;Min_cycle;Max_cycle;Signal;HPM_P1;HPM_P2
2022/10/18 00:01:48;;;;;;;11.32;5.03;;;;;;;14.36;96.19;102669.94;5011809;28;97607;-29
2022/10/18 00:04:14;;;;;;;10.05;4.47;;;;;;;14.36;96.16;102671.78;5011709;28;96635;-30
2022/10/18 00:06:39;;;;;;;13.13;4.90;;;;;;;14.33;96.35;102681.00;5011559;28;96812;-29
2022/10/18 00:09:04;;;;;;;13.25;5.30;;;;;;;14.28;96.03;102671.25;5011397;28;99634;-29
2022/10/18 00:11:30;;;;;;;10.85;5.28;;;;;;;14.26;96.19;102682.25;5011459;28;97350;-30
2022/10/18 00:13:56;;;;;;;10.55;4.47;;;;;;;14.22;96.02;102677.88;5011558;28;96676;-29
2022/10/18 00:16:21;;;;;;;12.45;5.13;;;;;;;14.19;96.13;102678.03;5010435;28;96869;-29
2022/10/18 00:18:47;;;;;;;12.07;4.90;;;;;;;14.18;96.10;102670.81;5010303;28;97408;-30
2022/10/18 00:21:18;;;;;;;9.43;4.68;;;;;;;14.15;95.99;102676.41;5011196;28;98458;-29
2022/10/18 00:23:45;;;;;;;9.85;4.72;;;;;;;14.14;95.93;102677.38;5009543;28;99595;-29
2022/10/18 00:26:20;;;;;;;12.82;4.57;;;;;;;14.08;96.15;102681.25;5010158;28;97028;-29
2022/10/18 00:28:49;;;;;;;10.57;4.70;;;;;;;14.10;96.03;102689.38;5011304;28;99702;-29
2022/10/18 00:31:22;;;;;;;12.15;4.53;;;;;;;14.06;95.88;102677.72;5013404;28;100801;-28
2022/10/18 00:33:50;;;;;;;12.95;4.90;;;;;;;14.01;95.87;102671.59;5013275;28;96617;-30
2022/10/18 00:36:16;;;;;;;9.57;4.72;;;;;;;14.02;95.77;102678.84;5013172;28;96899;-30
2022/10/18 00:38:42;;;;;;;11.18;4.80;;;;;;;13.99;95.89;102687.13;5014385;28;99283;-29
2022/10/18 00:41:10;;;;;;;9.00;4.30;;;;;;;13.96;95.73;102695.47;5013499;28;101082;-30
2022/10/18 00:43:53;;;;;;;11.30;4.55;;;;;;;13.90;95.69;102699.38;5013155;28;96607;-30
2022/10/18 00:46:19;;;;;;;9.60;3.47;;;;;;;13.88;95.82;102698.53;5013090;28;96736;-30
2022/10/18 00:48:45;;;;;;;8.80;4.25;;;;;;;13.87;95.59;102706.78;5012081;28;100785;-28
2022/10/18 00:51:11;;;;;;;9.02;4.40;;;;;;;13.84;95.74;102699.63;5014546;28;97932;-29
2022/10/18 00:53:36;;;;;;;14.32;5.35;;;;;;;13.80;95.84;102696.19;5013224;28;96601;-30
2022/10/18 00:56:02;;;;;;;10.50;4.82;;;;;;;13.81;95.81;102694.34;5014448;28;96783;-30
2022/10/18 00:58:27;;;;;;;8.98;4.07;;;;;;;13.77;95.80;102692.69;5013968;28;98703;-29
2022/10/18 01:00:53;;;;;;;7.80;3.97;;;;;;;13.75;95.56;102690.06;5014374;28;98290;-30
2022/10/18 01:03:18;;;;;;;8.52;4.20;;;;;;;13.73;95.77;102691.06;5013965;28;104536;-29
2022/10/18 01:05:46;;;;;;;9.45;4.15;;;;;;;13.74;95.70;102704.63;5014897;28;96796;-29
2022/10/18 01:08:23;;;;;;;10.60;4.45;;;;;;;13.73;95.67;102704.66;5012606;28;100895;-29
2022/10/18 01:10:49;;;;;;;11.27;3.83;;;;;;;13.72;95.98;102701.06;5012768;28;100819;-30
2022/10/18 01:13:40;;;;;;;10.80;4.50;;;;;;;13.72;95.94;102700.19;5013555;28;97517;-29
2022/10/18 01:16:24;;;;;;;8.10;3.70;;;;;;;13.72;95.81;102700.19;5012507;28;96939;-29
2022/10/18 01:19:29;;;;;;;10.23;4.65;;;;;;;13.71;96.05;102695.72;5013883;28;99155;-29
2022/10/18 01:22:13;;;;;;;7.22;3.85;;;;;;;13.68;96.05;102710.34;5012658;28;101003;-30
2022/10/18 01:25:16;;;;;;;13.60;4.15;;;;;;;13.69;96.00;102703.94;5012649;28;96646;-29
2022/10/18 01:28:06;;;;;;;13.32;4.45;;;;;;;13.67;95.88;102705.84;5014131;28;96950;-30
2022/10/18 01:30:36;;;;;;;9.20;4.00;;;;;;;13.64;95.87;102696.94;5012381;28;99301;-29
2022/10/18 01:33:31;;;;;;;8.98;4.32;;;;;;;13.62;95.78;102709.75;5012632;28;99914;-29
2022/10/18 01:36:14;;;;;;;10.18;4.68;;;;;;;13.58;95.74;102707.13;4979101;28;96928;-31
2022/10/18 01:38:42;;;;;;;10.60;4.78;;;;;;;13.55;95.85;102707.28;5013957;28;96762;-29
2022/10/18 01:41:10;;;;;;;8.80;4.10;;;;;;;13.52;95.88;102695.66;5011358;28;101115;-29
2022/10/18 01:43:36;;;;;;;10.93;5.20;;;;;;;13.53;95.74;102705.56;5012202;28;100840;-30
2022/10/18 01:46:03;;;;;;;9.90;4.50;;;;;;;13.54;95.71;102707.38;5012125;28;96917;-29
2022/10/18 01:48:29;;;;;;;12.73;4.75;;;;;;;13.52;95.79;102703.81;5011767;28;96859;-30
2022/10/18 01:50:55;;;;;;;10.13;4.50;;;;;;;13.51;95.85;102705.63;5013535;28;98066;-28
2022/10/18 01:53:33;;;;;;;11.77;4.32;;;;;;;13.51;95.81;102719.25;5012089;28;101029;-31
2022/10/18 01:56:10;;;;;;;12.45;5.20;;;;;;;13.50;95.74;102711.16;5012184;28;96598;-28
2022/10/18 01:58:45;;;;;;;9.63;4.32;;;;;;;13.46;95.98;102709.50;5012471;28;96806;-30
2022/10/18 02:01:19;;;;;;;15.40;4.20;;;;;;;13.47;96.06;102712.19;5011884;28;101267;-29
2022/10/18 02:03:49;;;;;;;7.72;4.28;;;;;;;13.44;96.11;102709.56;5011943;28;101200;-29
2022/10/18 02:06:30;;;;;;;11.43;4.93;;;;;;;13.44;95.96;102708.69;5011565;28;96916;-29
2022/10/18 02:08:55;;;;;;;12.50;4.38;;;;;;;13.44;95.84;102706.84;5028705;28;96729;-29
2022/10/18 02:11:21;;;;;;;12.73;5.15;;;;;;;13.41;95.79;102707.00;5013377;28;97395;-29
2022/10/18 02:14:02;;;;;;;13.10;4.22;;;;;;;13.41;95.88;102708.84;5013022;28;98279;-28
2022/10/18 02:16:41;;;;;;;11.98;5.05;;;;;;;13.37;95.77;102708.97;5011818;28;96849;-29
2022/10/18 02:19:24;;;;;;;11.02;4.28;;;;;;;13.31;95.90;102714.69;5011731;28;96729;-29
2022/10/18 02:21:52;;;;;;;9.18;4.00;;;;;;;13.28;95.78;102712.09;5011581;28;101112;-29
2022/10/18 02:24:19;;;;;;;8.35;4.25;;;;;;;13.26;95.54;102715.81;5011902;28;101005;-29
2022/10/18 02:26:45;;;;;;;8.70;4.32;;;;;;;13.20;95.60;102719.66;5011649;28;96570;-30
2022/10/18 02:29:11;;;;;;;8.10;4.47;;;;;;;13.17;95.72;102719.78;5013242;28;96816;-29
2022/10/18 02:31:50;;;;;;;6.53;3.83;;;;;;;13.15;95.71;102725.28;5012488;28;97327;-30
2022/10/18 02:34:26;;;;;;;9.20;4.03;;;;;;;13.14;95.49;102720.81;5013050;28;97874;-30
2022/10/18 02:37:01;;;;;;;7.32;3.50;;;;;;;13.10;95.46;102723.72;5011389;28;96615;-30
2022/10/18 02:39:45;;;;;;;8.60;3.83;;;;;;;13.05;95.56;102718.47;5011307;28;96845;-29
2022/10/18 02:42:12;;;;;;;9.13;3.80;;;;;;;13.04;95.61;102729.41;5011271;28;101157;-31
2022/10/18 02:44:38;;;;;;;14.00;3.10;;;;;;;13.03;95.52;102716.78;5011221;28;101482;-31
2022/10/18 02:47:05;;;;;;;7.55;3.38;;;;;;;13.01;95.44;102726.81;5012321;28;96859;-30
2022/10/18 02:49:30;;;;;;;8.07;3.33;;;;;;;12.97;95.38;102720.66;5011538;28;97056;-30
2022/10/18 02:51:56;;;;;;;8.45;3.90;;;;;;;12.91;95.56;102718.16;5011364;28;109687;-29
2022/10/18 02:54:21;;;;;;;6.55;3.22;;;;;;;12.93;95.45;102721.72;5011911;28;117512;-29
2022/10/18 02:56:47;;;;;;;7.47;3.97;;;;;;;12.90;95.35;102721.84;5010615;28;97424;-28
2022/10/18 02:59:12;;;;;;;8.15;3.38;;;;;;;12.86;95.19;102731.94;5012384;28;102432;-29
2022/10/18 03:01:37;;;;;;;9.38;4.43;;;;;;;12.82;95.24;102729.41;5012465;28;97975;-29
2022/10/18 03:04:03;;;;;;;9.60;3.75;;;;;;;12.84;95.29;102730.25;5011890;28;112902;-29
2022/10/18 03:06:29;;;;;;;7.47;3.33;;;;;;;12.79;95.21;102727.72;5011172;28;96860;-28
2022/10/18 03:08:54;;;;;;;8.27;3.63;;;;;;;12.75;95.25;102718.81;5027932;28;96910;-30
2022/10/18 03:11:20;;;;;;;9.57;3.78;;;;;;;12.71;95.09;102722.59;5012265;28;97903;-29
2022/10/18 03:13:45;;;;;;;7.00;3.15;;;;;;;12.66;94.92;102721.00;5012952;28;97424;-29
2022/10/18 03:16:11;;;;;;;5.50;2.67;;;;;;;12.65;95.03;102730.09;5011904;28;96664;-31
2022/10/18 03:18:36;;;;;;;5.60;3.33;;;;;;;12.62;95.21;102722.06;5010901;28;97010;-29
2022/10/18 03:21:06;;;;;;;7.43;3.58;;;;;;;12.60;95.23;102722.13;5011747;28;97437;-28
2022/10/18 03:23:32;;;;;;;6.90;3.63;;;;;;;12.56;95.32;102733.19;5010620;28;101847;-29
2022/10/18 03:25:57;;;;;;;5.10;2.65;;;;;;;12.54;95.14;102731.41;5012010;28;96529;-29
2022/10/18 03:28:23;;;;;;;9.30;3.83;;;;;;;12.52;95.11;102730.59;5012327;28;96830;-29
2022/10/18 03:30:48;;;;;;;8.70;3.45;;;;;;;12.50;95.11;102732.47;5012081;28;97995;-31
2022/10/18 03:33:13;;;;;;;9.40;3.20;;;;;;;12.47;95.18;102735.34;5011050;28;119786;-30
2022/10/18 03:35:38;;;;;;;8.27;3.58;;;;;;;12.47;95.14;102735.34;5011711;28;104924;-29
2022/10/18 03:38:04;;;;;;;6.00;3.42;;;;;;;12.46;95.22;102727.22;5012918;28;96825;-29
2022/10/18 03:40:29;;;;;;;5.28;3.17;;;;;;;12.44;95.30;102734.53;5011932;28;97742;-30
2022/10/18 03:42:54;;;;;;;8.07;2.92;;;;;;;12.44;95.05;102735.47;5011482;28;109207;-29
2022/10/18 03:45:20;;;;;;;5.72;3.38;;;;;;;12.43;95.46;102730.94;5010693;28;104921;-29
2022/10/18 03:47:45;;;;;;;12.27;3.47;;;;;;;12.40;94.96;102727.47;5011274;28;100407;-30
2022/10/18 03:50:10;;;;;;;6.88;3.22;;;;;;;12.41;95.04;102737.41;5011690;28;99162;-29
2022/10/18 03:52:36;;;;;;;6.25;3.33;;;;;;;12.40;94.86;102733.78;5011910;28;97858;-31
2022/10/18 03:55:02;;;;;;;6.18;3.10;;;;;;;12.40;94.89;102733.78;5011619;28;96568;-29
2022/10/18 03:57:27;;;;;;;6.15;2.90;;;;;;;12.37;95.15;102733.00;5011778;28;96820;-31
2022/10/18 03:59:52;;;;;;;4.53;2.35;;;;;;;12.31;95.30;102728.72;5011270;28;99296;-30
2022/10/18 04:02:18;;;;;;;6.63;2.90;;;;;;;12.31;95.38;102724.16;5012109;28;97756;-29
2022/10/18 04:04:43;;;;;;;7.78;2.60;;;;;;;12.36;95.20;102725.81;5014378;28;96515;-29
2022/10/18 04:07:08;;;;;;;4.97;2.38;;;;;;;12.36;95.20;102723.09;5014693;28;110433;-30
2022/10/18 04:09:34;;;;;;;4.50;2.65;;;;;;;12.31;95.05;102721.44;5014356;28;99530;-30
2022/10/18 04:11:59;;;;;;;8.07;2.60;;;;;;;12.30;95.04;102722.41;5015064;28;97048;-29
2022/10/18 04:14:24;;;;;;;6.00;2.85;;;;;;;12.27;94.92;102725.22;5013064;28;97096;-29
2022/10/18 04:16:50;;;;;;;6.63;3.28;;;;;;;12.26;95.24;102731.59;5015174;28;96660;-30
2022/10/18 04:19:15;;;;;;;7.47;3.30;;;;;;;12.29;95.40;102730.59;5014764;28;99373;-29
2022/10/18 04:21:40;;;;;;;5.80;2.92;;;;;;;12.27;95.12;102727.94;5014827;28;103183;-28
2022/10/18 04:24:06;;;;;;;7.00;3.10;;;;;;;12.24;95.28;102727.19;5015034;28;96595;-31
2022/10/18 04:26:31;;;;;;;5.88;2.90;;;;;;;12.20;95.08;102720.97;5015537;28;96827;-30
2022/10/18 04:28:56;;;;;;;4.97;2.78;;;;;;;12.18;95.43;102721.97;5014559;28;97557;-29
2022/10/18 04:31:22;;;;;;;7.05;2.40;;;;;;;12.19;95.53;102726.47;5014175;28;117290;-29
2022/10/18 04:33:47;;;;;;;5.63;2.65;;;;;;;12.17;95.32;102726.53;5014332;28;96580;-30
2022/10/18 04:36:12;;;;;;;9.63;3.00;;;;;;;12.16;95.26;102734.75;5014288;28;106385;-29
2022/10/18 04:38:37;;;;;;;7.13;2.65;;;;;;;12.13;95.15;102741.16;5014607;28;102490;-29
2022/10/18 04:41:03;;;;;;;8.02;2.42;;;;;;;12.15;95.13;102743.81;5013868;28;119430;-29
2022/10/18 04:43:28;;;;;;;8.55;2.78;;;;;;;12.14;95.18;102736.63;5014664;28;96563;-30
2022/10/18 04:45:53;;;;;;;4.72;2.38;;;;;;;12.11;95.20;102743.06;5029788;28;96840;-31
2022/10/18 04:48:19;;;;;;;5.45;2.67;;;;;;;12.06;94.94;102740.53;5014079;28;97097;-29
2022/10/18 04:50:47;;;;;;;5.35;2.80;;;;;;;12.05;94.99;102738.72;5014990;28;97321;-28
2022/10/18 04:53:12;;;;;;;5.20;2.58;;;;;;;12.03;95.08;102739.75;5029852;28;96666;-29
2022/10/18 04:55:37;;;;;;;4.80;2.72;;;;;;;12.00;94.94;102739.88;5014555;28;96857;-30
2022/10/18 04:58:03;;;;;;;5.30;3.00;;;;;;;11.97;94.79;102742.69;5013640;28;102188;-30
2022/10/18 05:00:28;;;;;;;4.80;2.47;;;;;;;11.93;94.79;102747.34;5013668;28;112554;-30
2022/10/18 05:02:57;;;;;;;5.03;2.63;;;;;;;11.92;94.67;102748.31;5013902;28;107609;-29
2022/10/18 05:05:22;;;;;;;8.95;2.90;;;;;;;11.89;94.87;102752.00;5012956;28;96835;-29
2022/10/18 05:07:48;;;;;;;5.65;2.78;;;;;;;11.87;94.92;102753.91;5014080;28;99324;-29
2022/10/18 05:10:13;;;;;;;4.90;2.00;;;;;;;11.82;94.70;102742.28;5014156;28;97114;-29
2022/10/18 05:12:38;;;;;;;7.45;2.70;;;;;;;11.83;94.72;102752.19;5013924;28;96504;-30
2022/10/18 05:15:04;;;;;;;3.40;2.13;;;;;;;11.79;94.75;102772.25;5013064;28;97189;-29
2022/10/18 05:17:29;;;;;;;3.50;1.98;;;;;;;11.75;94.82;102767.88;5013926;28;99061;-30
2022/10/18 05:19:55;;;;;;;5.72;1.80;;;;;;;11.74;94.66;102770.63;5014139;28;97954;-29
2022/10/18 05:22:20;;;;;;;6.43;2.40;;;;;;;11.69;94.69;102770.81;5013334;28;102556;-30
2022/10/18 05:24:45;;;;;;;7.60;3.30;;;;;;;11.68;94.72;102779.91;5012956;28;117591;-29
2022/10/18 05:27:10;;;;;;;4.47;2.63;;;;;;;11.68;94.51;102777.19;5013734;28;99319;-29
2022/10/18 05:29:36;;;;;;;5.00;2.63;;;;;;;11.64;94.80;102770.09;5013320;28;106258;-29
2022/10/18 05:32:02;;;;;;;9.00;3.03;;;;;;;11.62;94.19;102770.13;5013406;28;107373;-29
2022/10/18 05:34:30;;;;;;;4.80;2.53;;;;;;;11.59;94.63;102764.81;5013907;28;96755;-29
2022/10/18 05:36:56;;;;;;;4.28;2.50;;;;;;;11.56;94.45;102761.31;5013529;28;97978;-30
2022/10/18 05:39:21;;;;;;;4.38;2.30;;;;;;;11.57;93.96;102769.41;5014165;28;98109;-31
2022/10/18 05:41:46;;;;;;;5.70;2.45;;;;;;;11.52;94.18;102765.09;5013851;28;96494;-29
2022/10/18 05:44:11;;;;;;;5.57;2.60;;;;;;;11.52;94.35;102773.22;5012918;28;113277;-29
2022/10/18 05:46:37;;;;;;;5.22;2.60;;;;;;;11.48;94.32;102764.28;5012790;28;100035;-29
2022/10/18 05:49:02;;;;;;;6.88;3.60;;;;;;;11.46;94.59;102772.50;5013085;28;99125;-29
2022/10/18 05:51:27;;;;;;;5.30;2.70;;;;;;;11.44;94.52;102768.03;5013779;28;96577;-30
2022/10/18 05:53:53;;;;;;;4.15;2.10;;;;;;;11.42;93.91;102778.97;5012853;28;113263;-30
2022/10/18 05:56:18;;;;;;;3.80;2.15;;;;;;;11.41;94.17;102779.88;5013242;28;99506;-29
2022/10/18 05:58:49;;;;;;;4.97;2.40;;;;;;;11.38;94.22;102785.44;5013216;28;104501;-29
2022/10/18 06:01:14;;;;;;;6.57;2.65;;;;;;;11.36;94.15;102795.44;5012161;28;96561;-30
2022/10/18 06:03:39;;;;;;;4.55;2.13;;;;;;;11.31;94.05;102792.00;5013840;28;100406;-29
2022/10/18 06:06:11;;;;;;;5.28;2.95;;;;;;;11.29;94.32;102788.44;5012698;28;109126;-31
2022/10/18 06:08:38;;;;;;;6.15;2.70;;;;;;;11.26;94.22;102788.56;5011885;28;100738;-29
2022/10/18 06:11:13;;;;;;;5.38;2.72;;;;;;;11.27;94.16;102806.59;5010993;28;97059;-30
2022/10/18 06:13:43;;;;;;;6.90;3.40;;;;;;;11.28;93.90;102813.81;5011716;28;96824;-29
2022/10/18 06:16:09;;;;;;;8.07;2.35;;;;;;;11.22;93.93;102809.47;5011303;28;100885;-29
2022/10/18 06:18:35;;;;;;;7.40;2.60;;;;;;;11.19;94.17;102805.97;5011265;28;101097;-29
2022/10/18 06:21:00;;;;;;;9.98;2.97;;;;;;;11.14;93.95;102802.53;5012914;28;96509;-29
2022/10/18 06:23:27;;;;;;;5.68;2.88;;;;;;;11.13;94.38;102807.06;5012031;28;96758;-29
2022/10/18 06:25:52;;;;;;;5.20;2.58;;;;;;;11.15;94.24;102817.84;5011172;28;101094;-31
2022/10/18 06:28:18;;;;;;;10.48;2.05;;;;;;;11.13;93.92;102834.19;5013474;28;97816;-29
2022/10/18 06:30:43;;;;;;;9.73;3.15;;;;;;;11.13;94.10;102836.91;5013043;28;96533;-29
2022/10/18 06:33:10;;;;;;;8.38;3.58;;;;;;;11.12;94.31;102824.28;5013007;28;96794;-29
2022/10/18 06:35:36;;;;;;;9.13;3.40;;;;;;;11.11;94.13;102825.22;5027644;28;101329;-30
2022/10/18 06:38:01;;;;;;;6.65;2.83;;;;;;;11.10;94.26;102842.41;5012751;28;97380;-29
2022/10/18 06:40:28;;;;;;;7.40;2.83;;;;;;;11.11;94.15;102844.19;5012691;28;96586;-29
2022/10/18 06:42:53;;;;;;;11.10;3.03;;;;;;;11.09;94.29;102848.78;5011534;28;96811;-29
2022/10/18 06:45:18;;;;;;;5.50;2.90;;;;;;;11.10;94.54;102845.13;5011978;28;97820;-29
2022/10/18 06:47:43;;;;;;;14.18;3.33;;;;;;;11.11;94.49;102840.56;5011600;28;114127;-29
2022/10/18 06:50:10;;;;;;;12.80;3.63;;;;;;;11.10;94.34;102845.13;5012164;28;96581;-29
2022/10/18 06:52:35;;;;;;;4.13;2.03;;;;;;;11.08;94.37;102844.28;5013057;28;96746;-29
2022/10/18 06:55:01;;;;;;;8.32;2.53;;;;;;;11.10;94.54;102852.38;5011961;28;107376;-29
2022/10/18 06:57:26;;;;;;;7.90;2.92;;;;;;;11.11;94.79;102863.19;5012360;28;106408;-29
2022/10/18 06:59:51;;;;;;;6.55;2.83;;;;;;;11.12;94.46;102864.94;5011845;28;106407;-29
2022/10/18 07:02:17;;;;;;;7.93;2.80;;;;;;;11.13;94.63;102852.28;5012328;28;96576;-29
2022/10/18 07:04:42;;;;;;;6.80;3.17;;;;;;;11.15;94.50;102856.72;5012301;28;99255;-29
2022/10/18 07:07:08;;;;;;;4.50;2.20;;;;;;;11.15;94.46;102861.25;5011958;28;98738;-31
2022/10/18 07:09:33;;;;;;;6.22;2.85;;;;;;;11.18;94.14;102875.63;5009924;28;96751;-31
2022/10/18 07:11:58;;;;;;;8.32;2.47;;;;;;;11.21;94.57;102872.81;5010809;28;98756;-31
2022/10/18 07:14:23;;;;;;;7.93;2.55;;;;;;;11.27;94.36;102882.56;5011118;28;97341;-29
2022/10/18 07:16:49;;;;;;;4.38;2.03;;;;;;;11.34;94.31;102878.72;5011632;28;97917;-32
2022/10/18 07:19:15;;;;;;;4.65;2.25;;;;;;;11.36;94.09;102868.69;5011299;28;106445;-29
2022/10/18 07:21:40;;;;;;;5.72;2.40;;;;;;;11.41;94.39;102882.13;5010771;28;96824;-30
2022/10/18 07:24:05;;;;;;;6.78;2.40;;;;;;;11.47;94.05;102899.09;5011294;28;99205;-30
2022/10/18 07:26:33;;;;;;;7.15;2.53;;;;;;;11.49;94.21;102880.06;5011722;28;110729;-29
2022/10/18 07:29:09;;;;;;;11.00;2.92;;;;;;;11.60;95.54;102894.16;5012287;28;96583;-29
2022/10/18 07:31:34;;;;;;;9.05;2.65;;;;;;;11.65;95.62;102884.03;5010867;28;96766;-29
2022/10/18 07:34:02;;;;;;;5.55;2.60;;;;;;;11.68;95.75;102892.09;5010483;28;100727;-29
2022/10/18 07:36:27;;;;;;;14.10;2.80;;;;;;;11.67;94.89;102893.00;5012044;28;97256;-29
2022/10/18 07:38:53;;;;;;;6.55;2.20;;;;;;;11.69;94.51;102903.81;5015432;28;96517;-29
2022/10/18 07:41:18;;;;;;;5.40;2.38;;;;;;;11.75;94.75;102919.00;5017783;28;96817;-28
2022/10/18 07:43:46;;;;;;;6.93;2.30;;;;;;;11.82;95.40;102916.06;5018492;28;99434;-29
2022/10/18 07:46:13;;;;;;;6.20;2.70;;;;;;;11.87;95.63;102915.94;5018333;28;97534;-29
2022/10/18 07:48:39;;;;;;;12.18;2.70;;;;;;;11.96;96.47;102925.59;5016120;28;96963;-29
2022/10/18 07:51:04;;;;;;;3.75;2.03;;;;;;;11.98;96.43;102924.59;5018584;28;96850;-29
2022/10/18 07:53:30;;;;;;;5.30;2.35;;;;;;;12.06;96.87;102937.91;5018458;28;98046;-29
2022/10/18 07:56:05;;;;;;;4.63;2.33;;;;;;;12.08;96.74;102934.22;5016906;28;100901;-30
2022/10/18 07:58:33;;;;;;;5.82;2.17;;;;;;;12.18;97.49;102939.31;5018393;28;96558;-31
2022/10/18 08:01:03;;;;;;;6.30;2.28;;;;;;;12.22;97.51;102933.72;5018027;28;103093;-29
2022/10/18 08:03:29;;;;;;;7.25;2.17;;;;;;;12.24;97.75;102934.56;5017017;28;101715;-29
2022/10/18 08:05:54;;;;;;;7.18;2.17;;;;;;;12.28;97.58;102932.63;5018666;28;97831;-29
2022/10/18 08:08:22;;;;;;;10.60;2.28;;;;;;;12.33;97.48;102941.50;5018472;28;96462;-29
2022/10/18 08:10:48;;;;;;;5.15;2.15;;;;;;;12.35;97.92;102936.91;5016793;28;96825;-28
2022/10/18 08:13:14;;;;;;;5.22;2.08;;;;;;;12.44;98.19;102935.69;5017527;28;99369;-29
2022/10/18 08:15:39;;;;;;;6.35;2.08;;;;;;;12.48;98.30;102942.78;5017655;28;99344;-29
2022/10/18 08:18:04;;;;;;;3.60;2.15;;;;;;;12.49;98.08;102952.75;5018223;28;97248;-28
2022/10/18 08:20:32;;;;;;;5.15;2.15;;;;;;;12.56;97.65;102947.94;5017141;28;117801;-28
2022/10/18 08:22:57;;;;;;;4.13;1.73;;;;;;;12.60;97.76;102938.75;5017991;28;99363;-29
2022/10/18 08:25:23;;;;;;;9.00;2.17;;;;;;;12.63;97.51;102944.06;5016525;28;100935;-29
2022/10/18 08:27:48;;;;;;;4.07;1.83;;;;;;;12.69;97.76;102961.03;5017708;28;100874;-29
2022/10/18 08:30:13;;;;;;;2.97;1.63;;;;;;;12.75;97.93;102957.19;5018235;28;102137;-29
2022/10/18 08:32:38;;;;;;;5.22;1.75;;;;;;;12.79;97.73;102953.44;5017932;28;97891;-29
2022/10/18 08:35:04;;;;;;;5.32;1.63;;;;;;;12.81;96.98;102956.09;5017785;28;102445;-30
2022/10/18 08:37:30;;;;;;;7.07;1.23;;;;;;;12.87;96.79;102950.41;5017289;28;96615;-28
2022/10/18 08:39:55;;;;;;;3.10;1.50;;;;;;;12.90;96.20;102948.50;5018123;28;96765;-30
2022/10/18 08:42:41;;;;;;;5.55;1.67;;;;;;;12.98;96.94;102959.06;5017990;28;105066;-29
2022/10/18 08:45:11;;;;;;;5.65;1.30;;;;;;;13.04;96.92;102950.69;5017954;28;97900;-29
2022/10/18 08:47:41;;;;;;;3.95;1.45;;;;;;;13.10;96.46;102942.28;5015591;28;96861;-28
2022/10/18 08:50:13;;;;;;;1.67;0.98;;;;;;;13.12;96.34;102934.94;5013940;28;96591;-29
2022/10/18 08:52:57;;;;;;;10.98;1.60;;;;;;;13.20;95.90;102942.81;5013006;28;101171;-29
2022/10/18 08:55:28;;;;;;;4.75;1.35;;;;;;;13.22;94.68;102943.63;5014678;28;97853;-31
2022/10/18 08:57:56;;;;;;;7.23;1.03;;;;;;;13.30;94.57;102946.09;5013129;28;96725;-30
2022/10/18 09:00:26;;;;;;;4.88;1.50;;;;;;;13.35;94.18;102949.53;5012562;28;96866;-27
2022/10/18 09:03:15;;;;;;;3.33;1.42;;;;;;;13.43;94.06;102950.09;5043599;27;101173;-29
2022/10/18 09:05:49;;;;;;;2.95;1.33;;;;;;;13.47;93.70;102940.00;5034013;27;99101;-30
2022/10/18 09:08:30;;;;;;;3.75;2.10;;;;;;;13.53;93.35;102943.34;5019754;28;96780;-29
2022/10/18 09:11:17;;;;;;;3.08;0.85;;;;;;;13.58;92.21;102946.75;5019293;28;96750;-29
2022/10/18 09:14:12;;;;;;;9.32;1.92;;;;;;;13.65;92.83;102944.66;5032169;28;100886;-31
2022/10/18 09:16:37;;;;;;;3.15;1.27;;;;;;;13.74;93.07;102954.31;5028101;28;99082;-30
2022/10/18 09:19:09;;;;;;;4.28;0.98;;;;;;;13.80;92.33;102962.25;5034121;28;96605;-28
2022/10/18 09:22:16;;;;;;;7.32;1.40;;;;;;;13.92;92.19;102959.00;5033520;28;96760;-29
2022/10/18 09:24:57;;;;;;;2.58;0.98;;;;;;;14.02;90.54;102949.47;5030857;28;97574;-28
2022/10/18 09:27:42;;;;;;;7.00;1.10;;;;;;;14.19;91.37;102958.78;5032728;28;100879;-29
2022/10/18 09:30:32;;;;;;;2.33;1.17;;;;;;;14.38;91.41;102964.31;5033830;27;96761;-29
2022/10/18 09:33:11;;;;;;;4.40;0.98;;;;;;;14.58;90.97;102958.91;5033909;28;96745;-29
2022/10/18 09:36:07;;;;;;;3.72;0.82;;;;;;;14.77;89.21;102971.72;5032478;28;101547;-29
2022/10/18 09:38:54;;;;;;;5.72;0.82;;;;;;;15.07;88.88;102973.03;5032958;28;97848;-30
2022/10/18 09:41:19;;;;;;;2.50;0.77;;;;;;;15.34;87.70;102978.16;5033821;28;96603;-29
2022/10/18 09:43:51;;;;;;;3.28;0.93;;;;;;;15.64;86.47;102977.66;5034187;28;96764;-30
2022/10/18 09:46:19;;;;;;;7.18;0.73;;;;;;;15.94;85.43;102969.81;5032189;28;101397;-28
2022/10/18 09:48:50;;;;;;;5.45;0.90;;;;;;;16.21;83.65;102966.63;5032012;28;100794;-28
2022/10/18 09:51:22;;;;;;;11.10;0.85;;;;;;;16.50;83.49;102974.22;5032488;28;96612;-30
2022/10/18 09:53:47;;;;;;;3.00;0.80;;;;;;;16.75;82.58;102979.25;5034130;27;96667;-28
2022/10/18 09:56:25;;;;;;;1.60;0.90;;;;;;;17.00;81.79;102977.97;5032980;28;97487;-30
2022/10/18 09:58:50;;;;;;;3.38;0.73;;;;;;;17.20;80.26;102974.13;5032090;28;100772;-29
2022/10/18 10:01:24;;;;;;;4.50;1.10;;;;;;;17.36;80.02;102980.53;5033296;27;96489;-28
2022/10/18 10:03:51;;;;;;;10.95;1.42;;;;;;;17.53;79.84;102985.03;5032289;28;96736;-29
2022/10/18 10:06:22;;;;;;;5.75;1.17;;;;;;;17.67;77.48;102981.53;5031988;28;101001;-30
2022/10/18 10:09:13;;;;;;;1.20;0.70;;;;;;;17.79;77.77;102993.63;5032049;28;100706;-29
2022/10/18 10:11:44;;;;;;;7.80;1.30;;;;;;;17.96;77.00;103000.91;5032138;28;96617;-30
2022/10/18 10:14:14;;;;;;;4.68;1.02;;;;;;;18.15;76.67;102998.84;5032342;28;96565;-29
2022/10/18 10:16:58;;;;;;;5.13;0.95;;;;;;;18.30;76.28;102988.81;5031793;28;101110;-29
2022/10/18 10:19:28;;;;;;;1.13;0.60;;;;;;;18.40;75.37;102994.63;5033167;28;99346;-29
2022/10/18 10:22:01;;;;;;;3.17;0.90;;;;;;;18.55;75.14;103009.31;5031329;28;96782;-29
2022/10/18 10:24:49;;;;;;;6.32;1.17;;;;;;;18.65;74.85;103005.88;5032001;28;96793;-29
2022/10/18 10:27:19;;;;;;;2.60;1.10;;;;;;;18.73;74.68;103002.66;5032822;28;99370;-31
2022/10/18 10:29:45;;;;;;;2.90;1.00;;;;;;;18.86;74.14;103002.84;5033342;28;97844;-29
2022/10/18 10:32:16;;;;;;;7.75;0.82;;;;;;;18.92;74.37;103002.44;5032923;28;96568;-31
2022/10/18 10:34:42;;;;;;;8.05;0.90;;;;;;;19.07;73.76;103001.50;5032934;27;97713;-30
2022/10/18 10:37:27;;;;;;;2.38;1.00;;;;;;;19.15;73.80;103014.75;5032945;28;97823;-28
2022/10/18 10:40:15;;;;;;;4.47;1.42;;;;;;;19.27;72.98;103013.06;5031445;28;101235;-28
2022/10/18 10:42:51;;;;;;;3.95;1.13;;;;;;;19.36;71.27;103020.72;5031589;28;96748;-28
2022/10/18 10:45:19;;;;;;;7.35;1.05;;;;;;;19.43;72.16;103022.09;5031433;28;96842;-29
2022/10/18 10:47:45;;;;;;;5.80;0.80;;;;;;;19.51;72.01;103019.72;5030229;28;100798;-30
2022/10/18 10:50:11;;;;;;;3.65;0.90;;;;;;;19.61;70.87;103020.00;5032597;28;97297;-29
2022/10/18 10:52:38;;;;;;;6.95;0.82;;;;;;;19.71;71.35;103029.47;5032558;28;96490;-29
2022/10/18 10:55:14;;;;;;;3.72;0.88;;;;;;;19.78;71.56;103029.06;5031320;28;96782;-29
2022/10/18 10:57:44;;;;;;;11.82;1.70;;;;;;;19.78;70.01;103021.69;5031088;28;100840;-29
2022/10/18 11:00:35;;;;;;;3.22;0.88;;;;;;;19.87;68.91;103023.81;5031028;28;100950;-29
2022/10/18 11:03:13;;;;;;;4.85;0.90;;;;;;;19.93;68.17;103025.31;5031295;28;96576;-29
2022/10/18 11:05:57;;;;;;;7.25;1.20;;;;;;;20.03;68.46;103022.81;5031594;28;96903;-29
2022/10/18 11:08:31;;;;;;;3.13;0.80;;;;;;;20.03;68.78;103029.19;5030928;28;101359;-29
2022/10/18 11:11:02;;;;;;;1.63;0.40;;;;;;;20.06;67.81;103036.38;5031005;28;101071;-29
2022/10/18 11:13:40;;;;;;;5.55;1.08;;;;;;;20.12;67.06;103027.72;5031405;27;96468;-29
2022/10/18 11:16:13;;;;;;;11.25;1.77;;;;;;;20.15;68.16;103019.25;5030998;28;96891;-29
2022/10/18 11:18:39;;;;;;;3.05;1.27;;;;;;;20.22;68.97;103023.34;5031017;28;100976;-29
2022/10/18 11:21:41;;;;;;;10.38;1.67;;;;;;;20.33;67.13;103008.84;5030864;28;100877;-31
2022/10/18 11:24:15;;;;;;;8.50;1.17;;;;;;;20.40;67.65;103009.31;5010093;28;96642;-29
2022/10/18 11:26:51;;;;;;;5.82;1.05;;;;;;;20.46;68.06;103019.91;5024203;28;96787;-29
2022/10/18 11:29:55;;;;;;;2.78;1.15;;;;;;;20.53;67.60;103022.13;5030635;28;101261;-29
2022/10/18 11:32:33;;;;;;;9.13;0.93;;;;;;;20.54;66.63;103014.72;5008742;28;97965;-29
2022/10/18 11:35:09;;;;;;;2.72;0.73;;;;;;;20.56;65.94;103010.91;5030921;28;96704;-29